sensor_id;sensor_type;location;lat;lon;timestamp;temperature;humidity
13744;DHT22;6943;52.368;9.966;2023-04-24T00:00:55;12.10;1.00
13744;DHT22;6943;52.368;9.966;2023-04-24T00:03:22;12.10;1.00
13744;DHT22;6943;52.368;9.966;2023-04-24T00:05:48;12.10;1.00
13744;DHT22;6943;52.368;9.966;2023-04-24T00:08:13;12.00;1.00
13744;DHT22;6943;52.368;9.966;2023-04-24T00:10:39;12.00;1.00
13744;DHT22;6943;52.368;9.966;2023-04-24T00:13:04;12.10;1.00
13744;DHT22;6943;52.368;9.966;2023-04-24T00:15:30;12.10;1.00
13744;DHT22;6943;52.368;9.966;2023-04-24T00:17:56;12.20;1.00
13744;DHT22;6943;52.368;9.966;2023-04-24T00:20:21;12.10;1.00
13744;DHT22;6943;52.368;9.966;2023-04-24T00:22:47;12.10;1.00
13744;DHT22;6943;52.368;9.966;2023-04-24T00:25:13;12.10;1.00
13744;DHT22;6943;52.368;9.966;2023-04-24T00:27:38;12.10;1.00
13744;DHT22;6943;52.368;9.966;2023-04-24T00:30:04;12.00;1.00
13744;DHT22;6943;52.368;9.966;2023-04-24T00:32:30;12.00;1.00
13744;DHT22;6943;52.368;9.966;2023-04-24T00:34:56;11.90;1.00
13744;DHT22;6943;52.368;9.966;2023-04-24T00:37:21;11.90;99.90
13744;DHT22;6943;52.368;9.966;2023-04-24T00:39:47;11.80;99.90
13744;DHT22;6943;52.368;9.966;2023-04-24T00:42:12;11.80;99.90
13744;DHT22;6943;52.368;9.966;2023-04-24T00:44:38;11.70;1.00
13744;DHT22;6943;52.368;9.966;2023-04-24T00:47:04;11.70;1.00
13744;DHT22;6943;52.368;9.966;2023-04-24T00:49:29;11.70;1.00
13744;DHT22;6943;52.368;9.966;2023-04-24T00:51:55;11.60;1.00
13744;DHT22;6943;52.368;9.966;2023-04-24T00:54:22;11.60;99.90
13744;DHT22;6943;52.368;9.966;2023-04-24T00:56:48;11.50;99.90
13744;DHT22;6943;52.368;9.966;2023-04-24T00:59:16;11.60;99.90
13744;DHT22;6943;52.368;9.966;2023-04-24T01:01:42;11.40;1.00
13744;DHT22;6943;52.368;9.966;2023-04-24T01:04:09;11.40;1.00
13744;DHT22;6943;52.368;9.966;2023-04-24T01:06:38;11.40;1.00
13744;DHT22;6943;52.368;9.966;2023-04-24T01:09:04;11.30;1.00
13744;DHT22;6943;52.368;9.966;2023-04-24T01:11:30;11.20;99.90
13744;DHT22;6943;52.368;9.966;2023-04-24T01:13:56;11.30;99.90
13744;DHT22;6943;52.368;9.966;2023-04-24T01:16:22;11.20;99.90
13744;DHT22;6943;52.368;9.966;2023-04-24T01:18:48;11.20;99.90
13744;DHT22;6943;52.368;9.966;2023-04-24T01:21:15;11.20;1.00
13744;DHT22;6943;52.368;9.966;2023-04-24T01:23:44;11.20;5.80
13744;DHT22;6943;52.368;9.966;2023-04-24T01:26:10;11.20;1.00
13744;DHT22;6943;52.368;9.966;2023-04-24T01:28:36;11.30;1.00
13744;DHT22;6943;52.368;9.966;2023-04-24T01:31:02;11.20;3.50
13744;DHT22;6943;52.368;9.966;2023-04-24T01:33:28;11.20;99.90
13744;DHT22;6943;52.368;9.966;2023-04-24T01:35:54;11.20;99.90
13744;DHT22;6943;52.368;9.966;2023-04-24T01:38:20;10.60;99.90
13744;DHT22;6943;52.368;9.966;2023-04-24T01:40:45;11.10;99.90
13744;DHT22;6943;52.368;9.966;2023-04-24T01:43:12;11.10;99.90
13744;DHT22;6943;52.368;9.966;2023-04-24T01:45:37;11.10;60.70
13744;DHT22;6943;52.368;9.966;2023-04-24T01:48:03;11.00;1.00
13744;DHT22;6943;52.368;9.966;2023-04-24T01:50:29;11.00;1.00
13744;DHT22;6943;52.368;9.966;2023-04-24T01:52:54;11.00;1.00
13744;DHT22;6943;52.368;9.966;2023-04-24T01:55:20;11.00;1.00
13744;DHT22;6943;52.368;9.966;2023-04-24T01:57:46;10.90;1.00
13744;DHT22;6943;52.368;9.966;2023-04-24T02:00:12;11.00;99.90
13744;DHT22;6943;52.368;9.966;2023-04-24T02:02:40;10.90;99.90
13744;DHT22;6943;52.368;9.966;2023-04-24T02:05:07;10.90;99.90
13744;DHT22;6943;52.368;9.966;2023-04-24T02:07:32;10.90;99.90
13744;DHT22;6943;52.368;9.966;2023-04-24T02:09:58;10.90;99.90
13744;DHT22;6943;52.368;9.966;2023-04-24T02:12:24;10.80;1.00
13744;DHT22;6943;52.368;9.966;2023-04-24T02:14:49;10.80;1.00
13744;DHT22;6943;52.368;9.966;2023-04-24T02:17:15;10.80;1.00
13744;DHT22;6943;52.368;9.966;2023-04-24T02:19:41;10.80;1.00
13744;DHT22;6943;52.368;9.966;2023-04-24T02:22:07;10.70;1.00
13744;DHT22;6943;52.368;9.966;2023-04-24T02:24:32;10.70;1.00
13744;DHT22;6943;52.368;9.966;2023-04-24T02:26:57;10.60;1.00
13744;DHT22;6943;52.368;9.966;2023-04-24T02:29:23;10.70;71.20
13744;DHT22;6943;52.368;9.966;2023-04-24T02:31:49;10.60;99.90
13744;DHT22;6943;52.368;9.966;2023-04-24T02:34:14;10.60;99.90
13744;DHT22;6943;52.368;9.966;2023-04-24T02:36:40;10.60;1.00
13744;DHT22;6943;52.368;9.966;2023-04-24T02:39:05;10.60;1.00
13744;DHT22;6943;52.368;9.966;2023-04-24T02:41:31;10.60;99.90
13744;DHT22;6943;52.368;9.966;2023-04-24T02:44:00;10.60;1.00
13744;DHT22;6943;52.368;9.966;2023-04-24T02:46:26;10.50;1.00
13744;DHT22;6943;52.368;9.966;2023-04-24T02:48:51;10.50;99.90
13744;DHT22;6943;52.368;9.966;2023-04-24T02:51:17;10.50;99.90
13744;DHT22;6943;52.368;9.966;2023-04-24T02:53:42;10.50;99.90
13744;DHT22;6943;52.368;9.966;2023-04-24T02:56:08;10.40;1.00
13744;DHT22;6943;52.368;9.966;2023-04-24T02:58:33;10.40;99.90
13744;DHT22;6943;52.368;9.966;2023-04-24T03:00:59;10.40;99.90
13744;DHT22;6943;52.368;9.966;2023-04-24T03:03:25;10.40;99.90
13744;DHT22;6943;52.368;9.966;2023-04-24T03:05:51;10.40;99.90
13744;DHT22;6943;52.368;9.966;2023-04-24T03:08:16;10.30;99.90
13744;DHT22;6943;52.368;9.966;2023-04-24T03:10:42;10.30;99.90
13744;DHT22;6943;52.368;9.966;2023-04-24T03:13:08;10.30;1.00
13744;DHT22;6943;52.368;9.966;2023-04-24T03:15:33;10.20;1.00
13744;DHT22;6943;52.368;9.966;2023-04-24T03:17:59;10.20;1.00
13744;DHT22;6943;52.368;9.966;2023-04-24T03:20:25;10.20;1.00
13744;DHT22;6943;52.368;9.966;2023-04-24T03:22:51;10.10;8.20
13744;DHT22;6943;52.368;9.966;2023-04-24T03:25:17;10.10;99.90
13744;DHT22;6943;52.368;9.966;2023-04-24T03:27:42;10.10;99.90
13744;DHT22;6943;52.368;9.966;2023-04-24T03:30:08;10.10;99.90
13744;DHT22;6943;52.368;9.966;2023-04-24T03:32:34;10.00;99.90
13744;DHT22;6943;52.368;9.966;2023-04-24T03:34:59;10.00;99.90
13744;DHT22;6943;52.368;9.966;2023-04-24T03:37:25;9.90;99.90
13744;DHT22;6943;52.368;9.966;2023-04-24T03:39:51;9.90;1.00
13744;DHT22;6943;52.368;9.966;2023-04-24T03:42:17;9.90;1.00
13744;DHT22;6943;52.368;9.966;2023-04-24T03:44:43;9.90;99.90
13744;DHT22;6943;52.368;9.966;2023-04-24T03:47:08;9.90;56.30
13744;DHT22;6943;52.368;9.966;2023-04-24T03:49:33;9.90;1.00
13744;DHT22;6943;52.368;9.966;2023-04-24T03:51:59;9.90;1.00
13744;DHT22;6943;52.368;9.966;2023-04-24T03:54:24;9.90;1.00
13744;DHT22;6943;52.368;9.966;2023-04-24T03:56:50;9.80;1.00
13744;DHT22;6943;52.368;9.966;2023-04-24T03:59:16;9.70;1.00
13744;DHT22;6943;52.368;9.966;2023-04-24T04:01:41;9.70;1.00
13744;DHT22;6943;52.368;9.966;2023-04-24T04:04:07;9.70;1.00
13744;DHT22;6943;52.368;9.966;2023-04-24T04:06:33;9.70;99.90
13744;DHT22;6943;52.368;9.966;2023-04-24T04:08:59;9.70;99.90
13744;DHT22;6943;52.368;9.966;2023-04-24T04:11:25;9.60;1.00
13744;DHT22;6943;52.368;9.966;2023-04-24T04:13:51;9.60;1.00
13744;DHT22;6943;52.368;9.966;2023-04-24T04:16:16;9.60;1.00
13744;DHT22;6943;52.368;9.966;2023-04-24T04:18:43;9.50;1.00
13744;DHT22;6943;52.368;9.966;2023-04-24T04:21:08;9.50;1.00
13744;DHT22;6943;52.368;9.966;2023-04-24T04:23:34;9.60;1.00
13744;DHT22;6943;52.368;9.966;2023-04-24T04:25:59;9.60;1.00
13744;DHT22;6943;52.368;9.966;2023-04-24T04:28:25;9.60;99.90
13744;DHT22;6943;52.368;9.966;2023-04-24T04:30:50;9.70;1.00
13744;DHT22;6943;52.368;9.966;2023-04-24T04:33:19;9.80;99.90
13744;DHT22;6943;52.368;9.966;2023-04-24T04:35:45;9.80;1.00
13744;DHT22;6943;52.368;9.966;2023-04-24T04:38:14;10.00;1.00
13744;DHT22;6943;52.368;9.966;2023-04-24T04:40:40;10.10;1.00
13744;DHT22;6943;52.368;9.966;2023-04-24T04:43:06;10.30;1.00
13744;DHT22;6943;52.368;9.966;2023-04-24T04:45:32;10.40;99.90
13744;DHT22;6943;52.368;9.966;2023-04-24T04:47:58;10.40;1.00
13744;DHT22;6943;52.368;9.966;2023-04-24T04:50:26;10.50;1.00
13744;DHT22;6943;52.368;9.966;2023-04-24T04:52:52;10.50;1.00
13744;DHT22;6943;52.368;9.966;2023-04-24T04:55:17;10.60;1.00
13744;DHT22;6943;52.368;9.966;2023-04-24T04:57:45;10.70;1.00
13744;DHT22;6943;52.368;9.966;2023-04-24T05:00:11;11.10;99.90
13744;DHT22;6943;52.368;9.966;2023-04-24T05:02:37;11.70;1.00
13744;DHT22;6943;52.368;9.966;2023-04-24T05:05:03;11.70;99.90
13744;DHT22;6943;52.368;9.966;2023-04-24T05:07:28;11.60;99.90
13744;DHT22;6943;52.368;9.966;2023-04-24T05:09:54;11.80;99.90
13744;DHT22;6943;52.368;9.966;2023-04-24T05:12:19;11.60;99.90
13744;DHT22;6943;52.368;9.966;2023-04-24T05:14:45;11.40;1.00
13744;DHT22;6943;52.368;9.966;2023-04-24T05:17:10;11.30;1.00
13744;DHT22;6943;52.368;9.966;2023-04-24T05:19:36;11.40;1.00
13744;DHT22;6943;52.368;9.966;2023-04-24T05:22:03;11.30;1.00
13744;DHT22;6943;52.368;9.966;2023-04-24T05:24:35;11.70;1.00
13744;DHT22;6943;52.368;9.966;2023-04-24T05:27:01;13.00;99.90
13744;DHT22;6943;52.368;9.966;2023-04-24T05:29:27;13.70;99.90
13744;DHT22;6943;52.368;9.966;2023-04-24T05:31:56;14.40;3.70
13744;DHT22;6943;52.368;9.966;2023-04-24T05:34:21;15.00;1.00
13744;DHT22;6943;52.368;9.966;2023-04-24T05:36:47;16.10;1.00
13744;DHT22;6943;52.368;9.966;2023-04-24T05:39:13;16.40;99.90
13744;DHT22;6943;52.368;9.966;2023-04-24T05:41:38;16.50;99.90
13744;DHT22;6943;52.368;9.966;2023-04-24T05:44:04;16.80;99.90
13744;DHT22;6943;52.368;9.966;2023-04-24T05:46:29;16.40;99.90
13744;DHT22;6943;52.368;9.966;2023-04-24T05:48:55;15.90;99.90
13744;DHT22;6943;52.368;9.966;2023-04-24T05:51:20;15.90;1.00
13744;DHT22;6943;52.368;9.966;2023-04-24T05:53:46;16.30;99.90
13744;DHT22;6943;52.368;9.966;2023-04-24T05:56:11;17.10;99.90
13744;DHT22;6943;52.368;9.966;2023-04-24T05:58:37;17.70;99.90
13744;DHT22;6943;52.368;9.966;2023-04-24T06:01:03;18.80;99.90
13744;DHT22;6943;52.368;9.966;2023-04-24T06:03:28;20.10;99.90
13744;DHT22;6943;52.368;9.966;2023-04-24T06:05:54;21.00;99.90
13744;DHT22;6943;52.368;9.966;2023-04-24T06:08:19;21.50;99.90
13744;DHT22;6943;52.368;9.966;2023-04-24T06:10:45;20.90;99.90
13744;DHT22;6943;52.368;9.966;2023-04-24T06:13:11;19.90;99.90
13744;DHT22;6943;52.368;9.966;2023-04-24T06:15:36;18.00;99.90
13744;DHT22;6943;52.368;9.966;2023-04-24T06:18:02;17.10;99.90
13744;DHT22;6943;52.368;9.966;2023-04-24T06:20:28;15.90;99.90
13744;DHT22;6943;52.368;9.966;2023-04-24T06:22:53;15.30;99.90
13744;DHT22;6943;52.368;9.966;2023-04-24T06:25:19;14.90;99.90
13744;DHT22;6943;52.368;9.966;2023-04-24T06:27:45;14.40;99.90
13744;DHT22;6943;52.368;9.966;2023-04-24T06:30:12;14.10;1.00
13744;DHT22;6943;52.368;9.966;2023-04-24T06:32:37;14.00;1.00
13744;DHT22;6943;52.368;9.966;2023-04-24T06:35:03;13.70;1.00
13744;DHT22;6943;52.368;9.966;2023-04-24T06:37:29;13.30;1.00
13744;DHT22;6943;52.368;9.966;2023-04-24T06:39:55;13.00;1.00
13744;DHT22;6943;52.368;9.966;2023-04-24T06:42:20;12.90;22.80
13744;DHT22;6943;52.368;9.966;2023-04-24T06:44:50;12.80;99.90
13744;DHT22;6943;52.368;9.966;2023-04-24T06:47:15;12.70;99.90
13744;DHT22;6943;52.368;9.966;2023-04-24T06:49:41;12.70;99.90
13744;DHT22;6943;52.368;9.966;2023-04-24T06:52:07;12.60;99.90
13744;DHT22;6943;52.368;9.966;2023-04-24T06:54:33;12.60;99.90
13744;DHT22;6943;52.368;9.966;2023-04-24T06:56:59;12.90;99.90
13744;DHT22;6943;52.368;9.966;2023-04-24T06:59:26;13.40;1.00
13744;DHT22;6943;52.368;9.966;2023-04-24T07:01:52;13.80;1.00
13744;DHT22;6943;52.368;9.966;2023-04-24T07:04:18;13.90;1.00
13744;DHT22;6943;52.368;9.966;2023-04-24T07:06:45;13.90;1.00
13744;DHT22;6943;52.368;9.966;2023-04-24T07:09:11;13.80;1.00
13744;DHT22;6943;52.368;9.966;2023-04-24T07:11:38;13.70;1.00
13744;DHT22;6943;52.368;9.966;2023-04-24T07:14:06;13.70;1.00
13744;DHT22;6943;52.368;9.966;2023-04-24T07:16:31;13.80;1.00
13744;DHT22;6943;52.368;9.966;2023-04-24T07:18:57;14.00;1.00
13744;DHT22;6943;52.368;9.966;2023-04-24T07:21:22;14.00;1.00
13744;DHT22;6943;52.368;9.966;2023-04-24T07:23:48;13.90;1.00
13744;DHT22;6943;52.368;9.966;2023-04-24T07:26:13;13.80;1.00
13744;DHT22;6943;52.368;9.966;2023-04-24T07:28:40;13.90;1.00
13744;DHT22;6943;52.368;9.966;2023-04-24T07:31:06;14.40;1.00
13744;DHT22;6943;52.368;9.966;2023-04-24T07:33:32;14.70;1.00
13744;DHT22;6943;52.368;9.966;2023-04-24T07:35:58;14.50;99.90
13744;DHT22;6943;52.368;9.966;2023-04-24T07:38:23;14.40;99.90
13744;DHT22;6943;52.368;9.966;2023-04-24T07:40:51;14.40;99.90
13744;DHT22;6943;52.368;9.966;2023-04-24T07:43:17;14.50;99.90
13744;DHT22;6943;52.368;9.966;2023-04-24T07:45:42;15.60;99.90
13744;DHT22;6943;52.368;9.966;2023-04-24T07:48:08;16.00;99.90
13744;DHT22;6943;52.368;9.966;2023-04-24T07:50:34;19.30;99.90
13744;DHT22;6943;52.368;9.966;2023-04-24T07:53:01;23.00;99.90
13744;DHT22;6943;52.368;9.966;2023-04-24T07:55:26;25.80;99.90
13744;DHT22;6943;52.368;9.966;2023-04-24T07:57:52;27.40;99.90
13744;DHT22;6943;52.368;9.966;2023-04-24T08:00:17;26.90;99.90
13744;DHT22;6943;52.368;9.966;2023-04-24T08:02:43;26.70;99.90
13744;DHT22;6943;52.368;9.966;2023-04-24T08:05:08;26.20;99.90
13744;DHT22;6943;52.368;9.966;2023-04-24T08:07:34;24.00;99.90
13744;DHT22;6943;52.368;9.966;2023-04-24T08:10:01;22.00;99.90
13744;DHT22;6943;52.368;9.966;2023-04-24T08:12:28;20.40;99.90
13744;DHT22;6943;52.368;9.966;2023-04-24T08:14:54;20.90;99.90
13744;DHT22;6943;52.368;9.966;2023-04-24T08:17:19;22.70;99.90
13744;DHT22;6943;52.368;9.966;2023-04-24T08:19:45;24.80;99.90
13744;DHT22;6943;52.368;9.966;2023-04-24T08:22:16;25.80;99.90
13744;DHT22;6943;52.368;9.966;2023-04-24T08:24:42;24.80;99.90
13744;DHT22;6943;52.368;9.966;2023-04-24T08:27:09;23.00;99.90
13744;DHT22;6943;52.368;9.966;2023-04-24T08:29:35;22.20;99.90
13744;DHT22;6943;52.368;9.966;2023-04-24T08:32:01;21.20;99.90
13744;DHT22;6943;52.368;9.966;2023-04-24T08:34:26;19.10;99.90
13744;DHT22;6943;52.368;9.966;2023-04-24T08:36:52;18.50;99.90
13744;DHT22;6943;52.368;9.966;2023-04-24T08:39:17;19.90;99.90
13744;DHT22;6943;52.368;9.966;2023-04-24T08:41:44;20.70;99.90
13744;DHT22;6943;52.368;9.966;2023-04-24T08:44:11;21.20;99.90
13744;DHT22;6943;52.368;9.966;2023-04-24T08:46:38;20.20;99.90
13744;DHT22;6943;52.368;9.966;2023-04-24T08:49:05;19.50;99.90
13744;DHT22;6943;52.368;9.966;2023-04-24T08:51:31;20.20;99.90
13744;DHT22;6943;52.368;9.966;2023-04-24T08:53:57;21.50;99.90
13744;DHT22;6943;52.368;9.966;2023-04-24T08:56:23;23.20;99.90
13744;DHT22;6943;52.368;9.966;2023-04-24T08:58:51;23.50;99.90
13744;DHT22;6943;52.368;9.966;2023-04-24T09:01:20;23.50;99.90
13744;DHT22;6943;52.368;9.966;2023-04-24T09:03:49;23.70;99.90
13744;DHT22;6943;52.368;9.966;2023-04-24T09:06:16;23.60;99.90
13744;DHT22;6943;52.368;9.966;2023-04-24T09:08:43;23.50;99.90
13744;DHT22;6943;52.368;9.966;2023-04-24T09:11:11;23.40;99.90
13744;DHT22;6943;52.368;9.966;2023-04-24T09:13:37;22.20;99.90
13744;DHT22;6943;52.368;9.966;2023-04-24T09:16:03;20.80;99.90
13744;DHT22;6943;52.368;9.966;2023-04-24T09:18:28;19.00;99.90
13744;DHT22;6943;52.368;9.966;2023-04-24T09:21:06;18.00;99.90
13744;DHT22;6943;52.368;9.966;2023-04-24T09:23:32;17.30;99.90
13744;DHT22;6943;52.368;9.966;2023-04-24T09:25:58;17.20;99.90
13744;DHT22;6943;52.368;9.966;2023-04-24T09:28:35;16.90;99.90
13744;DHT22;6943;52.368;9.966;2023-04-24T09:31:11;16.60;99.90
13744;DHT22;6943;52.368;9.966;2023-04-24T09:33:36;16.40;99.90
13744;DHT22;6943;52.368;9.966;2023-04-24T09:36:03;15.90;99.90
13744;DHT22;6943;52.368;9.966;2023-04-24T09:38:33;16.20;99.90
13744;DHT22;6943;52.368;9.966;2023-04-24T09:41:00;16.50;99.90
13744;DHT22;6943;52.368;9.966;2023-04-24T09:43:26;16.70;99.90
13744;DHT22;6943;52.368;9.966;2023-04-24T09:45:55;16.60;99.90
13744;DHT22;6943;52.368;9.966;2023-04-24T09:48:33;16.50;99.90
13744;DHT22;6943;52.368;9.966;2023-04-24T09:50:59;16.10;99.90
13744;DHT22;6943;52.368;9.966;2023-04-24T09:53:26;15.90;99.90
13744;DHT22;6943;52.368;9.966;2023-04-24T09:55:52;16.10;99.90
13744;DHT22;6943;52.368;9.966;2023-04-24T09:58:24;16.50;99.90
13744;DHT22;6943;52.368;9.966;2023-04-24T10:00:49;16.60;99.90
13744;DHT22;6943;52.368;9.966;2023-04-24T10:03:18;16.80;99.90
13744;DHT22;6943;52.368;9.966;2023-04-24T10:05:46;16.90;99.90
13744;DHT22;6943;52.368;9.966;2023-04-24T10:08:12;17.10;99.90
13744;DHT22;6943;52.368;9.966;2023-04-24T10:10:47;17.10;99.90
13744;DHT22;6943;52.368;9.966;2023-04-24T10:13:14;17.20;99.90
13744;DHT22;6943;52.368;9.966;2023-04-24T10:15:41;16.60;99.90
13744;DHT22;6943;52.368;9.966;2023-04-24T10:18:08;16.00;99.90
13744;DHT22;6943;52.368;9.966;2023-04-24T10:20:36;15.50;99.90
13744;DHT22;6943;52.368;9.966;2023-04-24T10:23:02;15.20;99.90
13744;DHT22;6943;52.368;9.966;2023-04-24T10:25:30;14.90;99.90
13744;DHT22;6943;52.368;9.966;2023-04-24T10:27:56;14.80;99.90
13744;DHT22;6943;52.368;9.966;2023-04-24T10:30:25;14.80;99.90
13744;DHT22;6943;52.368;9.966;2023-04-24T10:32:50;15.00;99.90
13744;DHT22;6943;52.368;9.966;2023-04-24T10:35:17;15.00;99.90
13744;DHT22;6943;52.368;9.966;2023-04-24T10:37:45;15.20;99.90
13744;DHT22;6943;52.368;9.966;2023-04-24T10:40:16;15.50;99.90
13744;DHT22;6943;52.368;9.966;2023-04-24T10:42:42;15.80;99.90
13744;DHT22;6943;52.368;9.966;2023-04-24T10:45:16;16.20;99.90
13744;DHT22;6943;52.368;9.966;2023-04-24T10:47:42;16.10;99.90
13744;DHT22;6943;52.368;9.966;2023-04-24T10:50:12;16.10;99.90
13744;DHT22;6943;52.368;9.966;2023-04-24T10:52:45;15.90;99.90
13744;DHT22;6943;52.368;9.966;2023-04-24T10:55:12;15.90;99.90
13744;DHT22;6943;52.368;9.966;2023-04-24T10:57:39;16.00;99.90
13744;DHT22;6943;52.368;9.966;2023-04-24T11:00:30;16.10;99.90
13744;DHT22;6943;52.368;9.966;2023-04-24T11:02:56;16.00;99.90
13744;DHT22;6943;52.368;9.966;2023-04-24T11:05:49;16.10;99.90
13744;DHT22;6943;52.368;9.966;2023-04-24T11:08:22;16.40;99.90
13744;DHT22;6943;52.368;9.966;2023-04-24T11:13:22;16.30;99.90
13744;DHT22;6943;52.368;9.966;2023-04-24T11:16:28;15.90;99.90
13744;DHT22;6943;52.368;9.966;2023-04-24T11:22:01;15.10;99.90
13744;DHT22;6943;52.368;9.966;2023-04-24T11:24:38;14.80;99.90
13744;DHT22;6943;52.368;9.966;2023-04-24T11:29:51;14.10;99.90
13744;DHT22;6943;52.368;9.966;2023-04-24T11:35:12;13.60;99.90
13744;DHT22;6943;52.368;9.966;2023-04-24T11:37:40;13.40;99.90
13744;DHT22;6943;52.368;9.966;2023-04-24T11:40:08;13.60;1.00
13744;DHT22;6943;52.368;9.966;2023-04-24T11:42:39;13.90;99.90
13744;DHT22;6943;52.368;9.966;2023-04-24T11:45:16;14.60;99.90
13744;DHT22;6943;52.368;9.966;2023-04-24T11:47:42;15.20;99.90
13744;DHT22;6943;52.368;9.966;2023-04-24T11:50:11;15.70;99.90
13744;DHT22;6943;52.368;9.966;2023-04-24T11:52:39;16.00;99.90
13744;DHT22;6943;52.368;9.966;2023-04-24T11:55:07;16.10;99.90
13744;DHT22;6943;52.368;9.966;2023-04-24T11:57:33;16.10;99.90
13744;DHT22;6943;52.368;9.966;2023-04-24T12:00:03;15.60;99.90
13744;DHT22;6943;52.368;9.966;2023-04-24T12:02:30;15.20;99.90
13744;DHT22;6943;52.368;9.966;2023-04-24T12:04:56;14.80;99.90
13744;DHT22;6943;52.368;9.966;2023-04-24T12:07:23;14.70;99.90
13744;DHT22;6943;52.368;9.966;2023-04-24T12:09:59;14.50;99.90
13744;DHT22;6943;52.368;9.966;2023-04-24T12:12:26;14.60;99.90
13744;DHT22;6943;52.368;9.966;2023-04-24T12:14:57;15.10;99.90
13744;DHT22;6943;52.368;9.966;2023-04-24T12:17:27;15.60;99.90
13744;DHT22;6943;52.368;9.966;2023-04-24T12:19:58;16.00;99.90
13744;DHT22;6943;52.368;9.966;2023-04-24T12:22:24;16.20;99.90
13744;DHT22;6943;52.368;9.966;2023-04-24T12:25:00;16.40;99.90
13744;DHT22;6943;52.368;9.966;2023-04-24T12:27:28;16.20;99.90
13744;DHT22;6943;52.368;9.966;2023-04-24T12:29:56;16.30;99.90
13744;DHT22;6943;52.368;9.966;2023-04-24T12:32:22;16.50;99.90
13744;DHT22;6943;52.368;9.966;2023-04-24T12:34:49;16.30;99.90
13744;DHT22;6943;52.368;9.966;2023-04-24T12:37:15;15.70;99.90
13744;DHT22;6943;52.368;9.966;2023-04-24T12:39:58;15.40;99.90
13744;DHT22;6943;52.368;9.966;2023-04-24T12:42:29;15.00;99.90
13744;DHT22;6943;52.368;9.966;2023-04-24T12:44:59;14.90;99.90
13744;DHT22;6943;52.368;9.966;2023-04-24T12:47:26;14.50;99.90
13744;DHT22;6943;52.368;9.966;2023-04-24T12:49:52;14.20;99.90
13744;DHT22;6943;52.368;9.966;2023-04-24T12:52:19;14.00;99.90
13744;DHT22;6943;52.368;9.966;2023-04-24T12:54:49;13.90;99.90
13744;DHT22;6943;52.368;9.966;2023-04-24T12:57:14;14.10;99.90
13744;DHT22;6943;52.368;9.966;2023-04-24T12:59:40;14.40;99.90
13744;DHT22;6943;52.368;9.966;2023-04-24T13:02:06;14.90;99.90
13744;DHT22;6943;52.368;9.966;2023-04-24T13:04:32;15.40;99.90
13744;DHT22;6943;52.368;9.966;2023-04-24T13:06:58;15.70;99.90
13744;DHT22;6943;52.368;9.966;2023-04-24T13:09:23;15.80;99.90
13744;DHT22;6943;52.368;9.966;2023-04-24T13:11:49;16.10;99.90
13744;DHT22;6943;52.368;9.966;2023-04-24T13:14:15;16.20;99.90
13744;DHT22;6943;52.368;9.966;2023-04-24T13:16:40;15.80;99.90
13744;DHT22;6943;52.368;9.966;2023-04-24T13:19:06;15.30;99.90
13744;DHT22;6943;52.368;9.966;2023-04-24T13:21:31;14.90;99.90
13744;DHT22;6943;52.368;9.966;2023-04-24T13:23:57;14.50;99.90
13744;DHT22;6943;52.368;9.966;2023-04-24T13:26:23;14.30;99.90
13744;DHT22;6943;52.368;9.966;2023-04-24T13:28:48;14.10;99.90
13744;DHT22;6943;52.368;9.966;2023-04-24T13:31:14;14.30;99.90
13744;DHT22;6943;52.368;9.966;2023-04-24T13:33:40;13.50;99.90
13744;DHT22;6943;52.368;9.966;2023-04-24T13:36:05;13.20;99.90
13744;DHT22;6943;52.368;9.966;2023-04-24T13:38:31;12.90;1.00
13744;DHT22;6943;52.368;9.966;2023-04-24T13:40:57;12.80;1.00
13744;DHT22;6943;52.368;9.966;2023-04-24T13:43:22;13.00;1.00
13744;DHT22;6943;52.368;9.966;2023-04-24T13:45:48;13.40;1.00
13744;DHT22;6943;52.368;9.966;2023-04-24T13:48:14;13.70;99.90
13744;DHT22;6943;52.368;9.966;2023-04-24T13:50:43;13.90;99.90
13744;DHT22;6943;52.368;9.966;2023-04-24T13:53:09;14.00;99.90
13744;DHT22;6943;52.368;9.966;2023-04-24T13:55:35;13.70;99.90
13744;DHT22;6943;52.368;9.966;2023-04-24T13:58:01;13.40;99.90
13744;DHT22;6943;52.368;9.966;2023-04-24T14:00:26;13.50;99.90
13744;DHT22;6943;52.368;9.966;2023-04-24T14:02:52;13.50;99.90
13744;DHT22;6943;52.368;9.966;2023-04-24T14:05:18;13.40;99.90
13744;DHT22;6943;52.368;9.966;2023-04-24T14:07:43;13.00;1.00
13744;DHT22;6943;52.368;9.966;2023-04-24T14:10:09;12.70;1.00
13744;DHT22;6943;52.368;9.966;2023-04-24T14:12:35;12.90;1.00
13744;DHT22;6943;52.368;9.966;2023-04-24T14:15:01;12.70;1.00
13744;DHT22;6943;52.368;9.966;2023-04-24T14:17:27;12.60;1.00
13744;DHT22;6943;52.368;9.966;2023-04-24T14:19:52;12.50;1.00
13744;DHT22;6943;52.368;9.966;2023-04-24T14:22:21;12.40;1.00
13744;DHT22;6943;52.368;9.966;2023-04-24T14:24:46;12.30;1.00
13744;DHT22;6943;52.368;9.966;2023-04-24T14:27:12;12.20;1.00
13744;DHT22;6943;52.368;9.966;2023-04-24T14:29:37;12.40;1.00
13744;DHT22;6943;52.368;9.966;2023-04-24T14:32:03;12.50;1.00
13744;DHT22;6943;52.368;9.966;2023-04-24T14:34:28;12.70;12.50
13744;DHT22;6943;52.368;9.966;2023-04-24T14:36:54;12.90;99.90
13744;DHT22;6943;52.368;9.966;2023-04-24T14:39:19;12.90;1.00
13744;DHT22;6943;52.368;9.966;2023-04-24T14:41:45;12.90;99.90
13744;DHT22;6943;52.368;9.966;2023-04-24T14:44:11;12.70;99.90
13744;DHT22;6943;52.368;9.966;2023-04-24T14:46:36;12.30;99.90
13744;DHT22;6943;52.368;9.966;2023-04-24T14:49:02;12.00;1.00
13744;DHT22;6943;52.368;9.966;2023-04-24T14:51:27;11.60;1.00
13744;DHT22;6943;52.368;9.966;2023-04-24T14:53:53;11.50;99.90
13744;DHT22;6943;52.368;9.966;2023-04-24T14:56:18;11.20;1.00
13744;DHT22;6943;52.368;9.966;2023-04-24T14:58:44;11.10;1.00
13744;DHT22;6943;52.368;9.966;2023-04-24T15:01:10;11.10;1.00
13744;DHT22;6943;52.368;9.966;2023-04-24T15:03:36;11.30;1.00
13744;DHT22;6943;52.368;9.966;2023-04-24T15:06:01;11.40;99.90
13744;DHT22;6943;52.368;9.966;2023-04-24T15:08:27;11.40;1.00
13744;DHT22;6943;52.368;9.966;2023-04-24T15:10:52;11.60;99.90
13744;DHT22;6943;52.368;9.966;2023-04-24T15:13:18;11.80;1.00
13744;DHT22;6943;52.368;9.966;2023-04-24T15:15:46;11.90;1.00
13744;DHT22;6943;52.368;9.966;2023-04-24T15:18:12;11.90;1.00
13744;DHT22;6943;52.368;9.966;2023-04-24T15:20:38;11.90;1.00
13744;DHT22;6943;52.368;9.966;2023-04-24T15:23:08;11.90;1.00
13744;DHT22;6943;52.368;9.966;2023-04-24T15:25:34;12.00;1.00
13744;DHT22;6943;52.368;9.966;2023-04-24T15:27:59;11.90;1.00
13744;DHT22;6943;52.368;9.966;2023-04-24T15:30:26;11.90;1.00
13744;DHT22;6943;52.368;9.966;2023-04-24T15:32:51;11.70;1.00
13744;DHT22;6943;52.368;9.966;2023-04-24T15:35:17;11.50;18.10
13744;DHT22;6943;52.368;9.966;2023-04-24T15:37:43;11.40;99.90
13744;DHT22;6943;52.368;9.966;2023-04-24T15:40:09;11.30;99.90
13744;DHT22;6943;52.368;9.966;2023-04-24T15:42:36;11.40;1.00
13744;DHT22;6943;52.368;9.966;2023-04-24T15:45:02;11.50;99.90
13744;DHT22;6943;52.368;9.966;2023-04-24T15:47:28;11.60;99.90
13744;DHT22;6943;52.368;9.966;2023-04-24T15:49:54;11.70;99.90
13744;DHT22;6943;52.368;9.966;2023-04-24T15:52:21;11.60;99.90
13744;DHT22;6943;52.368;9.966;2023-04-24T15:54:46;11.60;99.90
13744;DHT22;6943;52.368;9.966;2023-04-24T15:57:12;11.70;99.90
13744;DHT22;6943;52.368;9.966;2023-04-24T15:59:44;11.70;99.90